Time,TemperatureF,DewpointF,PressureIn,WindDirection,WindDirectionDegrees,WindSpeedMPH,WindSpeedGustMPH,Humidity,HourlyPrecipIn,Conditions,Clouds,dailyrainin,SoftwareType,DateUTC
2013-05-27 00:01:00,56.6,53.4,30.18,SE,126,0.0,0.0,89,0.00,,FEW250,0.00,VWS V14.01,2013-05-27 04:01:00,
2013-05-27 00:02:00,56.6,53.4,30.18,SE,126,0.0,0.0,89,0.00,,FEW250,0.00,VWS V14.01,2013-05-27 04:02:00,
2013-05-27 00:03:00,56.5,53.6,30.18,SE,126,0.0,0.0,90,0.00,,FEW250,0.00,VWS V14.01,2013-05-27 04:03:00,
2013-05-27 00:04:00,56.4,53.5,30.18,SE,126,0.0,0.0,90,0.00,,FEW250,0.00,VWS V14.01,2013-05-27 04:04:00,
2013-05-27 00:09:00,56.4,53.5,30.18,SE,126,0.0,0.0,90,0.00,,FEW250,0.00,VWS V14.01,2013-05-27 04:09:00,
2013-05-27 00:15:00,56.2,53.3,30.18,SE,126,0.0,0.0,90,0.00,,FEW250,0.00,VWS V14.01,2013-05-27 04:15:00,
2013-05-27 00:21:00,56.0,53.1,30.19,SE,126,0.0,0.0,90,0.00,,FEW250,0.00,VWS V14.01,2013-05-27 04:21:00,
2013-05-27 00:26:00,56.0,53.1,30.19,SE,126,0.0,0.0,90,0.00,,FEW250,0.00,VWS V14.01,2013-05-27 04:26:00,
2013-05-27 00:31:00,55.9,53.0,30.18,SE,126,0.0,0.0,90,0.00,,FEW250,0.00,VWS V14.01,2013-05-27 04:31:00,
2013-05-27 00:36:00,55.8,52.9,30.19,SE,126,0.0,0.0,90,0.00,,FEW250,0.00,VWS V14.01,2013-05-27 04:36:00,
2013-05-27 00:41:00,55.7,52.8,30.18,SE,126,0.0,0.0,90,0.00,,FEW250,0.00,VWS V14.01,2013-05-27 04:41:00,
2013-05-27 00:46:00,55.6,53.0,30.19,SE,126,0.0,0.0,91,0.00,,FEW250,0.00,VWS V14.01,2013-05-27 04:46:00,
2013-05-27 00:51:00,55.5,52.9,30.19,SE,126,0.0,0.0,91,0.00,,FEW250,0.00,VWS V14.01,2013-05-27 04:51:00,
2013-05-27 00:56:00,55.5,52.9,30.19,SE,126,0.0,0.0,91,0.00,,FEW250,0.00,VWS V14.01,2013-05-27 04:56:00,
2013-05-27 01:01:00,55.4,52.8,30.19,SE,126,0.0,0.0,91,0.00,,FEW250,0.00,VWS V14.01,2013-05-27 05:01:00,
2013-05-27 01:06:00,55.3,52.7,30.19,SE,126,0.0,0.0,91,0.00,,FEW250,0.00,VWS V14.01,2013-05-27 05:06:00,
2013-05-27 01:11:00,55.2,52.6,30.19,SE,126,0.0,0.0,91,0.00,,FEW250,0.00,VWS V14.01,2013-05-27 05:11:00,
2013-05-27 01:16:00,55.2,52.6,30.19,SE,126,0.0,0.0,91,0.00,,FEW250,0.00,VWS V14.01,2013-05-27 05:16:00,
2013-05-27 01:21:00,55.0,52.4,30.19,SE,126,0.0,0.0,91,0.00,,FEW250,0.00,VWS V14.01,2013-05-27 05:21:00,
2013-05-27 01:26:00,54.9,52.3,30.19,SE,126,0.0,0.0,91,0.00,,FEW250,0.00,VWS V14.01,2013-05-27 05:26:00,
2013-05-27 01:31:00,54.9,52.3,30.19,SE,126,0.0,0.0,91,0.00,,FEW250,0.00,VWS V14.01,2013-05-27 05:31:00,
2013-05-27 01:36:00,54.9,52.6,30.19,SE,126,0.0,0.0,92,0.00,,FEW250,0.00,VWS V14.01,2013-05-27 05:36:00,
2013-05-27 01:41:00,54.8,52.5,30.19,SE,126,0.0,0.0,92,0.00,,FEW250,0.00,VWS V14.01,2013-05-27 05:41:00,
2013-05-27 01:46:00,54.7,52.4,30.19,SE,126,0.0,0.0,92,0.00,,FEW250,0.00,VWS V14.01,2013-05-27 05:46:00,
2013-05-27 01:52:00,54.6,52.3,30.19,SE,126,0.0,0.0,92,0.00,,FEW250,0.00,VWS V14.01,2013-05-27 05:52:00,
2013-05-27 01:57:00,54.6,52.3,30.19,SE,126,0.0,0.0,92,0.00,,FEW250,0.00,VWS V14.01,2013-05-27 05:57:00,
2013-05-27 02:02:00,54.5,52.2,30.18,SE,126,0.0,0.0,92,0.00,,FEW250,0.00,VWS V14.01,2013-05-27 06:02:00,
2013-05-27 02:07:00,54.5,52.5,30.18,SE,126,0.0,0.0,93,0.00,,FEW250,0.00,VWS V14.01,2013-05-27 06:07:00,
2013-05-27 02:12:00,54.5,52.5,30.18,SE,126,0.0,0.0,93,0.00,,FEW250,0.00,VWS V14.01,2013-05-27 06:12:00,
2013-05-27 02:17:00,54.4,52.4,30.18,SE,126,0.0,0.0,93,0.00,,FEW250,0.00,VWS V14.01,2013-05-27 06:17:00,
2013-05-27 02:22:00,54.4,52.4,30.18,SE,126,0.0,0.0,93,0.00,,FEW250,0.00,VWS V14.01,2013-05-27 06:22:00,
2013-05-27 02:27:00,54.3,52.0,30.18,SE,126,0.0,0.0,92,0.00,,FEW250,0.00,VWS V14.01,2013-05-27 06:27:00,
2013-05-27 02:32:00,54.3,52.3,30.18,SE,126,0.0,0.0,93,0.00,,FEW250,0.00,VWS V14.01,2013-05-27 06:32:00,
2013-05-27 02:37:00,54.3,52.3,30.18,SE,126,0.0,0.0,93,0.00,,FEW250,0.00,VWS V14.01,2013-05-27 06:37:00,
2013-05-27 02:42:00,54.2,52.2,30.18,SE,126,0.0,0.0,93,0.00,,FEW250,0.00,VWS V14.01,2013-05-27 06:42:00,
2013-05-27 02:47:00,54.1,52.1,30.18,SE,126,0.0,0.0,93,0.00,,FEW250,0.00,VWS V14.01,2013-05-27 06:47:00,
2013-05-27 02:52:00,54.0,52.0,30.18,SE,126,0.0,0.0,93,0.00,,FEW250,0.00,VWS V14.01,2013-05-27 06:52:00,
2013-05-27 02:57:00,54.0,52.0,30.18,SE,126,0.0,0.0,93,0.00,,FEW250,0.00,VWS V14.01,2013-05-27 06:57:00,
2013-05-27 03:02:00,53.9,51.9,30.18,SE,126,0.0,0.0,93,0.00,,CLR,0.00,VWS V14.01,2013-05-27 07:02:00,
2013-05-27 03:07:00,53.9,51.9,30.18,SE,126,0.0,0.0,93,0.00,,CLR,0.00,VWS V14.01,2013-05-27 07:07:00,
2013-05-27 03:12:00,53.9,51.9,30.18,SE,126,0.0,0.0,93,0.00,,CLR,0.00,VWS V14.01,2013-05-27 07:12:00,
2013-05-27 03:17:00,53.9,51.9,30.18,SE,126,0.0,0.0,93,0.00,,CLR,0.00,VWS V14.01,2013-05-27 07:17:00,
2013-05-27 03:22:00,53.8,51.8,30.18,SE,126,0.0,0.0,93,0.00,,CLR,0.00,VWS V14.01,2013-05-27 07:22:00,
2013-05-27 03:27:00,53.7,51.7,30.18,SE,126,0.0,0.0,93,0.00,,CLR,0.00,VWS V14.01,2013-05-27 07:27:00,
2013-05-27 03:32:00,53.7,51.7,30.17,SE,126,0.0,0.0,93,0.00,,CLR,0.00,VWS V14.01,2013-05-27 07:32:00,
2013-05-27 03:37:00,53.7,51.7,30.17,SE,126,0.0,0.0,93,0.00,,CLR,0.00,VWS V14.01,2013-05-27 07:37:00,
2013-05-27 03:42:00,53.6,51.6,30.17,SE,126,0.0,0.0,93,0.00,,CLR,0.00,VWS V14.01,2013-05-27 07:42:00,
2013-05-27 03:47:00,53.6,51.6,30.17,SE,126,0.0,0.0,93,0.00,,CLR,0.00,VWS V14.01,2013-05-27 07:47:00,
2013-05-27 03:52:00,53.6,51.6,30.17,SE,126,0.0,0.0,93,0.00,,CLR,0.00,VWS V14.01,2013-05-27 07:52:00,
2013-05-27 03:57:00,53.5,51.5,30.17,SE,126,0.0,0.0,93,0.00,,CLR,0.00,VWS V14.01,2013-05-27 07:57:00,
2013-05-27 04:02:00,53.5,51.8,30.17,SE,126,0.0,0.0,94,0.00,,CLR,0.00,VWS V14.01,2013-05-27 08:02:00,
2013-05-27 04:07:00,53.5,51.5,30.17,SE,126,0.0,0.0,93,0.00,,CLR,0.00,VWS V14.01,2013-05-27 08:07:00,
2013-05-27 04:12:00,53.3,51.3,30.18,SE,126,0.0,0.0,93,0.00,,CLR,0.00,VWS V14.01,2013-05-27 08:12:00,
2013-05-27 04:17:00,53.1,51.1,30.18,SE,126,0.0,0.0,93,0.00,,CLR,0.00,VWS V14.01,2013-05-27 08:17:00,
2013-05-27 04:22:00,53.1,51.1,30.18,SE,126,0.0,0.0,93,0.00,,CLR,0.00,VWS V14.01,2013-05-27 08:22:00,
2013-05-27 04:27:00,53.1,51.1,30.18,SE,126,0.0,0.0,93,0.00,,CLR,0.00,VWS V14.01,2013-05-27 08:27:00,
2013-05-27 04:32:00,53.0,51.0,30.18,SE,126,0.0,0.0,93,0.00,,CLR,0.00,VWS V14.01,2013-05-27 08:32:00,
2013-05-27 04:37:00,53.0,51.3,30.19,SE,126,0.0,0.0,94,0.00,,CLR,0.00,VWS V14.01,2013-05-27 08:37:00,
2013-05-27 04:42:00,53.0,51.3,30.18,SE,126,0.0,0.0,94,0.00,,CLR,0.00,VWS V14.01,2013-05-27 08:42:00,
2013-05-27 04:47:00,53.0,51.3,30.19,SE,126,0.0,0.0,94,0.00,,CLR,0.00,VWS V14.01,2013-05-27 08:47:00,
2013-05-27 04:52:00,52.9,51.2,30.19,SE,126,0.0,0.0,94,0.00,,CLR,0.00,VWS V14.01,2013-05-27 08:52:00,
2013-05-27 04:57:00,52.9,51.2,30.19,SE,126,0.0,0.0,94,0.00,,CLR,0.00,VWS V14.01,2013-05-27 08:57:00,
2013-05-27 05:02:00,52.8,51.1,30.19,SE,126,0.0,0.0,94,0.00,,CLR,0.00,VWS V14.01,2013-05-27 09:02:00,
2013-05-27 05:07:00,52.8,51.1,30.19,SE,126,0.0,0.0,94,0.00,,CLR,0.00,VWS V14.01,2013-05-27 09:07:00,
2013-05-27 05:12:00,52.8,51.1,30.19,SE,126,0.0,0.0,94,0.00,,CLR,0.00,VWS V14.01,2013-05-27 09:12:00,
2013-05-27 05:17:00,52.8,51.1,30.19,SE,126,0.0,0.0,94,0.00,,CLR,0.00,VWS V14.01,2013-05-27 09:17:00,
2013-05-27 05:22:00,52.8,51.1,30.19,SE,126,0.0,0.0,94,0.00,,CLR,0.00,VWS V14.01,2013-05-27 09:22:00,
2013-05-27 05:27:00,52.8,51.1,30.19,SE,126,0.0,0.0,94,0.00,,CLR,0.00,VWS V14.01,2013-05-27 09:27:00,
2013-05-27 05:32:00,52.7,51.0,30.19,SE,126,0.0,0.0,94,0.00,,CLR,0.00,VWS V14.01,2013-05-27 09:32:00,
2013-05-27 05:37:00,52.7,51.0,30.19,SE,126,0.0,0.0,94,0.00,,CLR,0.00,VWS V14.01,2013-05-27 09:37:00,
2013-05-27 05:42:00,52.6,50.9,30.20,SE,126,0.0,0.0,94,0.00,,CLR,0.00,VWS V14.01,2013-05-27 09:42:00,
2013-05-27 05:47:00,52.5,50.5,30.19,SE,126,0.0,0.0,93,0.00,,CLR,0.00,VWS V14.01,2013-05-27 09:47:00,
2013-05-27 05:52:00,52.4,50.7,30.20,SE,126,0.0,0.0,94,0.00,,CLR,0.00,VWS V14.01,2013-05-27 09:52:00,
2013-05-27 05:57:00,52.4,50.7,30.20,SE,126,0.0,0.0,94,0.00,,CLR,0.00,VWS V14.01,2013-05-27 09:57:00,
2013-05-27 06:02:00,52.3,50.6,30.20,SE,126,0.0,0.0,94,0.00,,FEW250,0.00,VWS V14.01,2013-05-27 10:02:00,
2013-05-27 06:07:00,52.2,50.5,30.20,SE,126,0.0,0.0,94,0.00,,FEW250,0.00,VWS V14.01,2013-05-27 10:07:00,
2013-05-27 06:12:00,52.2,50.5,30.20,SE,126,0.0,0.0,94,0.00,,FEW250,0.00,VWS V14.01,2013-05-27 10:12:00,
2013-05-27 06:17:00,52.1,50.4,30.21,SE,126,0.0,0.0,94,0.00,,FEW250,0.00,VWS V14.01,2013-05-27 10:17:00,
2013-05-27 06:22:00,52.1,50.4,30.21,SE,126,0.0,0.0,94,0.00,,FEW250,0.00,VWS V14.01,2013-05-27 10:22:00,
2013-05-27 06:27:00,52.0,50.3,30.21,SE,126,0.0,0.0,94,0.00,,FEW250,0.00,VWS V14.01,2013-05-27 10:27:00,
2013-05-27 06:32:00,52.1,50.4,30.21,SE,126,0.0,0.0,94,0.00,,FEW250,0.00,VWS V14.01,2013-05-27 10:32:00,
2013-05-27 06:37:00,52.1,50.4,30.22,SE,126,0.0,0.0,94,0.00,,FEW250,0.00,VWS V14.01,2013-05-27 10:37:00,
2013-05-27 06:42:00,52.2,50.8,30.22,SE,126,0.0,0.0,95,0.00,,FEW250,0.00,VWS V14.01,2013-05-27 10:42:00,
2013-05-27 06:47:00,52.3,50.9,30.22,SE,126,0.0,0.0,95,0.00,,FEW250,0.00,VWS V14.01,2013-05-27 10:47:00,
2013-05-27 06:52:00,52.3,50.9,30.22,SE,126,0.0,0.0,95,0.00,,FEW250,0.00,VWS V14.01,2013-05-27 10:52:00,
2013-05-27 06:57:00,52.4,51.0,30.22,SE,126,0.0,0.0,95,0.00,,FEW250,0.00,VWS V14.01,2013-05-27 10:57:00,
2013-05-27 07:02:00,52.5,51.1,30.22,SE,126,0.0,0.0,95,0.00,,FEW250,0.00,VWS V14.01,2013-05-27 11:02:00,
2013-05-27 07:07:00,52.6,51.2,30.23,SE,126,0.0,0.0,95,0.00,,FEW250,0.00,VWS V14.01,2013-05-27 11:07:00,
2013-05-27 07:12:00,52.7,51.3,30.23,SE,126,0.0,0.0,95,0.00,,FEW250,0.00,VWS V14.01,2013-05-27 11:12:00,
2013-05-27 07:17:00,53.0,51.6,30.23,SE,126,0.0,0.0,95,0.00,,FEW250,0.00,VWS V14.01,2013-05-27 11:17:00,
2013-05-27 07:22:00,53.4,52.3,30.23,SE,126,0.0,0.0,96,0.00,,FEW250,0.00,VWS V14.01,2013-05-27 11:22:00,
2013-05-27 07:27:00,54.1,53.0,30.23,SE,126,0.0,0.0,96,0.00,,FEW250,0.00,VWS V14.01,2013-05-27 11:27:00,
2013-05-27 07:32:00,54.8,53.4,30.23,SE,126,0.0,0.0,95,0.00,,FEW250,0.00,VWS V14.01,2013-05-27 11:32:00,
2013-05-27 07:37:00,55.5,54.1,30.23,SE,126,0.0,0.0,95,0.00,,FEW250,0.00,VWS V14.01,2013-05-27 11:37:00,
2013-05-27 07:42:00,56.2,54.5,30.23,SE,126,0.0,0.0,94,0.00,,FEW250,0.00,VWS V14.01,2013-05-27 11:42:00,
2013-05-27 07:47:00,57.0,55.0,30.23,SE,126,0.0,0.0,93,0.00,,FEW250,0.00,VWS V14.01,2013-05-27 11:47:00,
2013-05-27 07:52:00,57.7,55.4,30.24,SE,126,0.0,0.0,92,0.00,,FEW250,0.00,VWS V14.01,2013-05-27 11:52:00,
2013-05-27 07:57:00,58.2,55.6,30.24,SE,126,0.0,0.0,91,0.00,,FEW250,0.00,VWS V14.01,2013-05-27 11:57:00,
2013-05-27 08:02:00,58.7,55.8,30.24,SE,126,0.0,0.0,90,0.00,,FEW250,0.00,VWS V14.01,2013-05-27 12:02:00,
2013-05-27 08:07:00,59.3,55.8,30.24,SE,126,0.0,0.0,88,0.00,,FEW250,0.00,VWS V14.01,2013-05-27 12:07:00,
2013-05-27 08:12:00,60.1,55.6,30.24,SE,126,0.0,0.0,85,0.00,,FEW250,0.00,VWS V14.01,2013-05-27 12:12:00,
2013-05-27 08:17:00,60.7,56.5,30.24,SE,126,0.0,0.0,86,0.00,,FEW250,0.00,VWS V14.01,2013-05-27 12:17:00,
2013-05-27 08:22:00,61.2,56.7,30.24,SE,126,0.0,0.0,85,0.00,,FEW250,0.00,VWS V14.01,2013-05-27 12:22:00,
2013-05-27 08:27:00,61.7,56.8,30.24,SE,126,0.0,0.0,84,0.00,,FEW250,0.00,VWS V14.01,2013-05-27 12:27:00,
2013-05-27 08:32:00,62.2,56.6,30.24,SE,126,0.0,0.0,82,0.00,,FEW250,0.00,VWS V14.01,2013-05-27 12:32:00,
2013-05-27 08:37:00,62.7,57.5,30.24,SE,126,0.0,0.0,83,0.00,,FEW250,0.00,VWS V14.01,2013-05-27 12:37:00,
2013-05-27 08:42:00,63.2,57.3,30.24,SE,126,0.0,0.0,81,0.00,,FEW250,0.00,VWS V14.01,2013-05-27 12:42:00,
2013-05-27 08:47:00,63.7,57.1,30.25,SE,126,0.0,0.0,79,0.00,,FEW250,0.00,VWS V14.01,2013-05-27 12:47:00,
2013-05-27 08:52:00,64.1,57.1,30.25,SE,126,0.0,0.0,78,0.00,,FEW250,0.00,VWS V14.01,2013-05-27 12:52:00,
2013-05-27 08:57:00,64.5,57.5,30.25,SE,126,0.0,0.0,78,0.00,,FEW250,0.00,VWS V14.01,2013-05-27 12:57:00,
2013-05-27 09:02:00,64.9,58.2,30.25,SE,126,0.0,0.0,79,0.00,,FEW250,0.00,VWS V14.01,2013-05-27 13:02:00,
2013-05-27 09:07:00,65.3,57.2,30.25,SE,126,0.0,0.0,75,0.00,,FEW250,0.00,VWS V14.01,2013-05-27 13:07:00,
2013-05-27 09:12:00,65.7,57.6,30.25,SE,126,0.0,0.0,75,0.00,,FEW250,0.00,VWS V14.01,2013-05-27 13:12:00,
2013-05-27 09:17:00,66.3,58.2,30.25,SE,126,0.0,0.0,75,0.00,,FEW250,0.00,VWS V14.01,2013-05-27 13:17:00,
2013-05-27 09:22:00,67.0,58.1,30.25,SE,126,0.0,0.0,73,0.00,,FEW250,0.00,VWS V14.01,2013-05-27 13:22:00,
2013-05-27 09:27:00,67.7,58.4,30.25,SE,126,0.0,0.0,72,0.00,,FEW250,0.00,VWS V14.01,2013-05-27 13:27:00,
2013-05-27 09:32:00,68.3,59.3,30.24,SE,126,0.0,0.0,73,0.00,,FEW250,0.00,VWS V14.01,2013-05-27 13:32:00,
2013-05-27 09:37:00,68.9,59.5,30.25,SE,126,1.0,0.0,72,0.00,,FEW250,0.00,VWS V14.01,2013-05-27 13:37:00,
2013-05-27 09:42:00,69.5,59.7,30.24,SE,126,0.0,0.0,71,0.00,,FEW250,0.00,VWS V14.01,2013-05-27 13:42:00,
2013-05-27 09:47:00,70.2,60.4,30.24,SE,126,0.0,0.0,71,0.00,,FEW250,0.00,VWS V14.01,2013-05-27 13:47:00,
2013-05-27 09:52:00,70.7,58.4,30.24,South,191,0.0,0.0,65,0.00,,FEW250,0.00,VWS V14.01,2013-05-27 13:52:00,
2013-05-27 09:57:00,71.4,57.3,30.24,SSW,192,0.0,0.0,61,0.00,,FEW250,0.00,VWS V14.01,2013-05-27 13:57:00,
2013-05-27 10:02:00,72.0,57.4,30.24,South,188,0.0,0.0,60,0.00,,SCT250,0.00,VWS V14.01,2013-05-27 14:02:00,
2013-05-27 10:07:00,72.6,57.9,30.24,SE,134,0.0,0.0,60,0.00,,SCT250,0.00,VWS V14.01,2013-05-27 14:07:00,
2013-05-27 10:12:00,72.9,57.3,30.23,SSE,157,2.0,0.0,58,0.00,,SCT250,0.00,VWS V14.01,2013-05-27 14:12:00,
2013-05-27 10:17:00,73.2,58.0,30.23,SSE,165,0.0,0.0,59,0.00,,SCT250,0.00,VWS V14.01,2013-05-27 14:17:00,
2013-05-27 10:22:00,73.6,57.9,30.23,SE,125,0.0,0.0,58,0.00,,SCT250,0.00,VWS V14.01,2013-05-27 14:22:00,
2013-05-27 10:27:00,74.0,57.3,30.23,SSE,154,1.0,0.0,56,0.00,,SCT250,0.00,VWS V14.01,2013-05-27 14:27:00,
2013-05-27 10:32:00,74.3,56.6,30.23,South,184,0.0,0.0,54,0.00,,SCT250,0.00,VWS V14.01,2013-05-27 14:32:00,
2013-05-27 10:37:00,74.3,56.6,30.23,SE,140,1.0,0.0,54,0.00,,SCT250,0.00,VWS V14.01,2013-05-27 14:37:00,
2013-05-27 10:42:00,74.4,56.2,30.23,SSE,153,2.0,0.0,53,0.00,,SCT250,0.00,VWS V14.01,2013-05-27 14:42:00,
2013-05-27 10:47:00,74.7,58.0,30.23,South,171,0.0,0.0,56,0.00,,SCT250,0.00,VWS V14.01,2013-05-27 14:47:00,
2013-05-27 10:52:00,74.9,55.0,30.23,East,101,0.0,0.0,50,0.00,,SCT250,0.00,VWS V14.01,2013-05-27 14:52:00,
2013-05-27 10:57:00,74.9,55.6,30.23,South,180,0.0,0.0,51,0.00,,SCT250,0.00,VWS V14.01,2013-05-27 14:57:00,
2013-05-27 11:02:00,75.1,56.3,30.23,WSW,258,0.0,0.0,52,0.00,,CLR,0.00,VWS V14.01,2013-05-27 15:02:00,
2013-05-27 11:07:00,75.4,56.0,30.23,West,262,3.0,0.0,51,0.00,,CLR,0.00,VWS V14.01,2013-05-27 15:07:00,
2013-05-27 11:12:00,75.3,57.0,30.22,NE,55,2.0,0.0,53,0.00,,CLR,0.00,VWS V14.01,2013-05-27 15:12:00,
2013-05-27 11:18:00,75.6,56.2,30.22,SSW,195,2.0,0.0,51,0.00,,CLR,0.00,VWS V14.01,2013-05-27 15:18:00,
2013-05-27 11:23:00,75.7,56.8,30.22,South,174,5.0,0.0,52,0.00,,CLR,0.00,VWS V14.01,2013-05-27 15:23:00,
2013-05-27 11:28:00,76.0,56.0,30.22,South,178,0.0,0.0,50,0.00,,CLR,0.00,VWS V14.01,2013-05-27 15:28:00,
2013-05-27 11:33:00,76.2,56.2,30.22,South,189,4.0,0.0,50,0.00,,CLR,0.00,VWS V14.01,2013-05-27 15:33:00,
2013-05-27 11:38:00,76.1,56.7,30.22,SSW,192,1.0,0.0,51,0.00,,CLR,0.00,VWS V14.01,2013-05-27 15:38:00,
2013-05-27 11:43:00,76.2,58.4,30.22,SE,130,0.0,0.0,54,0.00,,CLR,0.00,VWS V14.01,2013-05-27 15:43:00,
2013-05-27 11:48:00,76.5,57.0,30.22,North,355,1.0,0.0,51,0.00,,CLR,0.00,VWS V14.01,2013-05-27 15:48:00,
2013-05-27 11:53:00,76.8,56.2,30.22,WSW,240,0.0,0.0,49,0.00,,CLR,0.00,VWS V14.01,2013-05-27 15:53:00,
2013-05-27 11:58:00,77.3,56.1,30.21,SSW,209,0.0,0.0,48,0.00,,CLR,0.00,VWS V14.01,2013-05-27 15:58:00,
2013-05-27 12:03:00,77.6,58.6,30.21,South,171,0.0,0.0,52,0.00,,CLR,0.00,VWS V14.01,2013-05-27 16:03:00,
2013-05-27 12:08:00,77.8,56.0,30.21,SSE,149,3.0,0.0,47,0.00,,CLR,0.00,VWS V14.01,2013-05-27 16:08:00,
2013-05-27 12:13:00,77.8,57.7,30.21,South,170,0.0,0.0,50,0.00,,CLR,0.00,VWS V14.01,2013-05-27 16:13:00,
2013-05-27 12:18:00,77.8,57.7,30.21,South,182,0.0,0.0,50,0.00,,CLR,0.00,VWS V14.01,2013-05-27 16:18:00,
2013-05-27 12:23:00,78.0,55.6,30.21,SW,236,1.0,0.0,46,0.00,,CLR,0.00,VWS V14.01,2013-05-27 16:23:00,
2013-05-27 12:28:00,77.9,56.7,30.21,SE,134,0.0,0.0,48,0.00,,CLR,0.00,VWS V14.01,2013-05-27 16:28:00,
2013-05-27 12:33:00,78.1,57.4,30.21,SE,142,0.0,0.0,49,0.00,,CLR,0.00,VWS V14.01,2013-05-27 16:33:00,
2013-05-27 12:38:00,78.3,55.8,30.21,South,184,0.0,0.0,46,0.00,,CLR,0.00,VWS V14.01,2013-05-27 16:38:00,
2013-05-27 12:43:00,78.4,55.3,30.21,SSE,155,1.0,0.0,45,0.00,,CLR,0.00,VWS V14.01,2013-05-27 16:43:00,
2013-05-27 12:48:00,78.3,53.3,30.21,SE,138,0.0,0.0,42,0.00,,CLR,0.00,VWS V14.01,2013-05-27 16:48:00,
2013-05-27 12:53:00,78.4,55.9,30.21,ESE,105,0.0,0.0,46,0.00,,CLR,0.00,VWS V14.01,2013-05-27 16:53:00,
2013-05-27 12:58:00,78.4,55.3,30.21,SSW,200,0.0,0.0,45,0.00,,CLR,0.00,VWS V14.01,2013-05-27 16:58:00,
2013-05-27 13:03:00,78.4,56.5,30.21,South,190,2.0,0.0,47,0.00,,CLR,0.00,VWS V14.01,2013-05-27 17:03:00,
2013-05-27 13:08:00,78.6,56.1,30.20,ESE,117,0.0,0.0,46,0.00,,CLR,0.00,VWS V14.01,2013-05-27 17:08:00,
2013-05-27 13:13:00,78.6,55.5,30.20,East,90,1.0,0.0,45,0.00,,CLR,0.00,VWS V14.01,2013-05-27 17:13:00,
2013-05-27 13:18:00,78.6,54.9,30.20,South,183,0.0,0.0,44,0.00,,CLR,0.00,VWS V14.01,2013-05-27 17:18:00,
2013-05-27 13:23:00,78.8,57.5,30.20,South,186,0.0,0.0,48,0.00,,CLR,0.00,VWS V14.01,2013-05-27 17:23:00,
2013-05-27 13:28:00,78.8,57.5,30.20,SSW,197,0.0,0.0,48,0.00,,CLR,0.00,VWS V14.01,2013-05-27 17:28:00,
2013-05-27 13:33:00,78.9,56.4,30.20,South,180,0.0,0.0,46,0.00,,CLR,0.00,VWS V14.01,2013-05-27 17:33:00,
2013-05-27 13:38:00,79.1,56.0,30.20,SSW,198,0.0,0.0,45,0.00,,CLR,0.00,VWS V14.01,2013-05-27 17:38:00,
2013-05-27 13:43:00,79.2,56.0,30.19,SSW,213,3.0,0.0,45,0.00,,CLR,0.00,VWS V14.01,2013-05-27 17:43:00,
2013-05-27 13:48:00,79.3,56.8,30.20,South,190,0.0,0.0,46,0.00,,CLR,0.00,VWS V14.01,2013-05-27 17:48:00,
2013-05-27 13:53:00,79.4,57.4,30.19,SSW,209,0.0,0.0,47,0.00,,CLR,0.00,VWS V14.01,2013-05-27 17:53:00,
2013-05-27 13:58:00,79.5,56.3,30.19,SSE,159,2.0,0.0,45,0.00,,CLR,0.00,VWS V14.01,2013-05-27 17:58:00,
2013-05-27 14:03:00,79.4,56.2,30.19,SSW,198,1.0,0.0,45,0.00,,CLR,0.00,VWS V14.01,2013-05-27 18:03:00,
2013-05-27 14:08:00,79.3,57.3,30.19,ESE,106,0.0,0.0,47,0.00,,CLR,0.00,VWS V14.01,2013-05-27 18:08:00,
2013-05-27 14:13:00,79.2,57.2,30.19,South,180,2.0,0.0,47,0.00,,CLR,0.00,VWS V14.01,2013-05-27 18:13:00,
2013-05-27 14:18:00,79.0,57.7,30.19,SSW,201,0.0,0.0,48,0.00,,CLR,0.00,VWS V14.01,2013-05-27 18:18:00,
2013-05-27 14:23:00,79.0,56.5,30.19,West,259,1.0,0.0,46,0.00,,CLR,0.00,VWS V14.01,2013-05-27 18:23:00,
2013-05-27 14:28:00,78.9,57.0,30.19,SSE,150,1.0,0.0,47,0.00,,CLR,0.00,VWS V14.01,2013-05-27 18:28:00,
2013-05-27 14:33:00,79.0,58.8,30.18,South,173,0.0,0.0,50,0.00,,CLR,0.00,VWS V14.01,2013-05-27 18:33:00,
2013-05-27 14:38:00,78.7,58.5,30.18,South,173,0.0,0.0,50,0.00,,CLR,0.00,VWS V14.01,2013-05-27 18:38:00,
2013-05-27 14:43:00,78.5,57.8,30.18,South,173,0.0,0.0,49,0.00,,CLR,0.00,VWS V14.01,2013-05-27 18:43:00,
2013-05-27 14:48:00,78.8,56.9,30.18,South,169,3.0,0.0,47,0.00,,CLR,0.00,VWS V14.01,2013-05-27 18:48:00,
2013-05-27 14:53:00,79.1,57.8,30.17,SSW,195,0.0,0.0,48,0.00,,CLR,0.00,VWS V14.01,2013-05-27 18:53:00,
2013-05-27 14:58:00,79.2,57.8,30.17,SSW,192,0.0,0.0,48,0.00,,CLR,0.00,VWS V14.01,2013-05-27 18:58:00,
2013-05-27 15:03:00,79.2,56.0,30.17,SSW,192,0.0,0.0,45,0.00,,FEW250,0.00,VWS V14.01,2013-05-27 19:03:00,
2013-05-27 15:08:00,79.1,56.0,30.17,SSW,192,1.0,0.0,45,0.00,,FEW250,0.00,VWS V14.01,2013-05-27 19:08:00,
2013-05-27 15:13:00,79.0,56.5,30.17,WSW,244,0.0,0.0,46,0.00,,FEW250,0.00,VWS V14.01,2013-05-27 19:13:00,
2013-05-27 15:18:00,78.9,57.0,30.17,WSW,244,0.0,0.0,47,0.00,,FEW250,0.00,VWS V14.01,2013-05-27 19:18:00,
2013-05-27 15:23:00,78.9,55.8,30.17,ENE,66,0.0,0.0,45,0.00,,FEW250,0.00,VWS V14.01,2013-05-27 19:23:00,
2013-05-27 15:28:00,79.1,57.2,30.16,South,189,1.0,0.0,47,0.00,,FEW250,0.00,VWS V14.01,2013-05-27 19:28:00,
2013-05-27 15:33:00,79.3,57.3,30.16,SSW,194,2.0,0.0,47,0.00,,FEW250,0.00,VWS V14.01,2013-05-27 19:33:00,
2013-05-27 15:38:00,79.3,57.9,30.15,SSE,168,1.0,0.0,48,0.00,,FEW250,0.00,VWS V14.01,2013-05-27 19:38:00,
2013-05-27 15:43:00,79.4,56.8,30.15,NE,53,2.0,0.0,46,0.00,,FEW250,0.00,VWS V14.01,2013-05-27 19:43:00,
2013-05-27 15:48:00,79.6,57.0,30.15,SE,136,1.0,0.0,46,0.00,,FEW250,0.00,VWS V14.01,2013-05-27 19:48:00,
2013-05-27 15:53:00,79.7,56.5,30.14,NE,49,1.0,0.0,45,0.00,,FEW250,0.00,VWS V14.01,2013-05-27 19:53:00,
2013-05-27 15:58:00,79.7,56.5,30.14,SSE,150,0.0,0.0,45,0.00,,FEW250,0.00,VWS V14.01,2013-05-27 19:58:00,
2013-05-27 16:03:00,79.7,55.9,30.14,East,99,0.0,0.0,44,0.00,,FEW250,0.00,VWS V14.01,2013-05-27 20:03:00,
2013-05-27 16:08:00,79.7,56.5,30.14,South,187,1.0,0.0,45,0.00,,FEW250,0.00,VWS V14.01,2013-05-27 20:08:00,
2013-05-27 16:13:00,79.6,55.8,30.13,SE,144,0.0,0.0,44,0.00,,FEW250,0.00,VWS V14.01,2013-05-27 20:13:00,
2013-05-27 16:18:00,79.6,55.2,30.13,South,188,0.0,0.0,43,0.00,,FEW250,0.00,VWS V14.01,2013-05-27 20:18:00,
2013-05-27 16:23:00,79.6,55.8,30.14,SSE,155,0.0,0.0,44,0.00,,FEW250,0.00,VWS V14.01,2013-05-27 20:23:00,
2013-05-27 16:28:00,79.5,57.5,30.14,SSW,202,1.0,0.0,47,0.00,,FEW250,0.00,VWS V14.01,2013-05-27 20:28:00,
2013-05-27 16:33:00,79.5,55.1,30.14,SSE,161,0.0,0.0,43,0.00,,FEW250,0.00,VWS V14.01,2013-05-27 20:33:00,
2013-05-27 16:38:00,79.5,56.3,30.14,SSE,161,0.0,0.0,45,0.00,,FEW250,0.00,VWS V14.01,2013-05-27 20:38:00,
2013-05-27 16:43:00,79.5,55.7,30.13,SSE,167,0.0,0.0,44,0.00,,FEW250,0.00,VWS V14.01,2013-05-27 20:43:00,
2013-05-27 16:48:00,79.7,57.1,30.13,SSE,163,1.0,0.0,46,0.00,,FEW250,0.00,VWS V14.01,2013-05-27 20:48:00,
2013-05-27 16:53:00,79.8,56.0,30.13,South,169,2.0,0.0,44,0.00,,FEW250,0.00,VWS V14.01,2013-05-27 20:53:00,
2013-05-27 16:58:00,79.8,56.0,30.13,ENE,74,0.0,0.0,44,0.00,,FEW250,0.00,VWS V14.01,2013-05-27 20:58:00,
2013-05-27 17:03:00,79.8,56.6,30.13,SSE,150,0.0,0.0,45,0.00,,SCT250,0.00,VWS V14.01,2013-05-27 21:03:00,
2013-05-27 17:08:00,79.7,55.9,30.13,East,84,3.0,0.0,44,0.00,,SCT250,0.00,VWS V14.01,2013-05-27 21:08:00,
2013-05-27 17:13:00,79.6,56.4,30.13,SSE,157,2.0,0.0,45,0.00,,SCT250,0.00,VWS V14.01,2013-05-27 21:13:00,
2013-05-27 17:18:00,79.7,55.9,30.12,ESE,119,0.0,0.0,44,0.00,,SCT250,0.00,VWS V14.01,2013-05-27 21:18:00,
2013-05-27 17:23:00,79.7,55.9,30.12,South,171,0.0,0.0,44,0.00,,SCT250,0.00,VWS V14.01,2013-05-27 21:23:00,
2013-05-27 17:28:00,79.6,56.4,30.13,SSW,211,0.0,0.0,45,0.00,,SCT250,0.00,VWS V14.01,2013-05-27 21:28:00,
2013-05-27 17:33:00,79.5,57.5,30.13,SSE,160,0.0,0.0,47,0.00,,SCT250,0.00,VWS V14.01,2013-05-27 21:33:00,
2013-05-27 17:38:00,79.5,55.7,30.13,ENE,60,0.0,0.0,44,0.00,,SCT250,0.00,VWS V14.01,2013-05-27 21:38:00,
2013-05-27 17:43:00,79.5,57.5,30.13,South,172,1.0,0.0,47,0.00,,SCT250,0.00,VWS V14.01,2013-05-27 21:43:00,
2013-05-27 17:48:00,79.4,56.2,30.13,SW,223,1.0,0.0,45,0.00,,SCT250,0.00,VWS V14.01,2013-05-27 21:48:00,
2013-05-27 17:53:00,79.4,56.2,30.13,SE,137,0.0,0.0,45,0.00,,SCT250,0.00,VWS V14.01,2013-05-27 21:53:00,
2013-05-27 17:58:00,79.4,56.2,30.13,SSE,162,1.0,0.0,45,0.00,,SCT250,0.00,VWS V14.01,2013-05-27 21:58:00,
2013-05-27 18:03:00,79.4,56.2,30.12,SSW,192,0.0,0.0,45,0.00,,SCT250,0.00,VWS V14.01,2013-05-27 22:03:00,
2013-05-27 18:08:00,79.4,56.8,30.12,SE,146,1.0,0.0,46,0.00,,SCT250,0.00,VWS V14.01,2013-05-27 22:08:00,
2013-05-27 18:13:00,79.4,56.8,30.12,South,180,0.0,0.0,46,0.00,,SCT250,0.00,VWS V14.01,2013-05-27 22:13:00,
2013-05-27 18:18:00,79.3,57.9,30.12,South,180,0.0,0.0,48,0.00,,SCT250,0.00,VWS V14.01,2013-05-27 22:18:00,
2013-05-27 18:23:00,79.2,57.2,30.12,South,180,0.0,0.0,47,0.00,,SCT250,0.00,VWS V14.01,2013-05-27 22:23:00,
2013-05-27 18:28:00,79.2,57.2,30.12,South,180,0.0,0.0,47,0.00,,SCT250,0.00,VWS V14.01,2013-05-27 22:28:00,
2013-05-27 18:33:00,79.2,57.8,30.12,South,182,0.0,0.0,48,0.00,,SCT250,0.00,VWS V14.01,2013-05-27 22:33:00,
2013-05-27 18:38:00,79.1,57.8,30.12,SW,220,0.0,0.0,48,0.00,,SCT250,0.00,VWS V14.01,2013-05-27 22:38:00,
2013-05-27 18:43:00,79.1,57.8,30.12,SSE,166,0.0,0.0,48,0.00,,SCT250,0.00,VWS V14.01,2013-05-27 22:43:00,
2013-05-27 18:48:00,79.0,58.8,30.13,SW,221,0.0,0.0,50,0.00,,SCT250,0.00,VWS V14.01,2013-05-27 22:48:00,
2013-05-27 18:53:00,78.8,58.0,30.13,South,188,0.0,0.0,49,0.00,,SCT250,0.00,VWS V14.01,2013-05-27 22:53:00,
2013-05-27 18:58:00,78.7,58.5,30.13,South,188,0.0,0.0,50,0.00,,SCT250,0.00,VWS V14.01,2013-05-27 22:58:00,
2013-05-27 19:03:00,78.7,58.5,30.12,South,188,0.0,0.0,50,0.00,,SCT250,0.00,VWS V14.01,2013-05-27 23:03:00,
2013-05-27 19:08:00,78.5,58.3,30.12,South,180,0.0,0.0,50,0.00,,SCT250,0.00,VWS V14.01,2013-05-27 23:08:00,
2013-05-27 19:13:00,78.4,58.8,30.12,South,183,0.0,0.0,51,0.00,,SCT250,0.00,VWS V14.01,2013-05-27 23:13:00,
2013-05-27 19:18:00,78.3,58.7,30.13,South,183,0.0,0.0,51,0.00,,SCT250,0.00,VWS V14.01,2013-05-27 23:18:00,
2013-05-27 19:23:00,78.1,58.5,30.12,SSE,148,0.0,0.0,51,0.00,,SCT250,0.00,VWS V14.01,2013-05-27 23:23:00,
2013-05-27 19:28:00,78.0,59.0,30.12,SSE,148,0.0,0.0,52,0.00,,SCT250,0.00,VWS V14.01,2013-05-27 23:28:00,
2013-05-27 19:33:00,77.9,58.9,30.12,SSE,148,0.0,0.0,52,0.00,,SCT250,0.00,VWS V14.01,2013-05-27 23:33:00,
2013-05-27 19:38:00,77.7,58.7,30.12,SSE,148,0.0,0.0,52,0.00,,SCT250,0.00,VWS V14.01,2013-05-27 23:38:00,
2013-05-27 19:43:00,77.6,58.6,30.12,SSE,148,0.0,0.0,52,0.00,,SCT250,0.00,VWS V14.01,2013-05-27 23:43:00,
2013-05-27 19:48:00,77.4,59.0,30.12,SSE,148,0.0,0.0,53,0.00,,SCT250,0.00,VWS V14.01,2013-05-27 23:48:00,
2013-05-27 19:53:00,77.2,58.8,30.12,SSE,148,0.0,0.0,53,0.00,,SCT250,0.00,VWS V14.01,2013-05-27 23:53:00,
2013-05-27 19:58:00,77.0,59.1,30.12,SSE,148,0.0,0.0,54,0.00,,SCT250,0.00,VWS V14.01,2013-05-27 23:58:00,
2013-05-27 20:03:00,76.8,60.9,30.12,SSE,148,0.0,0.0,58,0.00,,SCT250,0.00,VWS V14.01,2013-05-28 00:03:00,
2013-05-27 20:08:00,76.4,60.5,30.12,SSE,148,0.0,0.0,58,0.00,,SCT250,0.00,VWS V14.01,2013-05-28 00:08:00,
2013-05-27 20:13:00,76.0,60.7,30.13,SSE,148,0.0,0.0,59,0.00,,SCT250,0.00,VWS V14.01,2013-05-28 00:13:00,
2013-05-27 20:18:00,75.6,60.8,30.13,SSE,148,0.0,0.0,60,0.00,,SCT250,0.00,VWS V14.01,2013-05-28 00:18:00,
2013-05-27 20:23:00,75.2,60.4,30.13,SSE,148,0.0,0.0,60,0.00,,SCT250,0.00,VWS V14.01,2013-05-28 00:23:00,
2013-05-27 20:28:00,74.8,60.9,30.13,SSE,148,0.0,0.0,62,0.00,,SCT250,0.00,VWS V14.01,2013-05-28 00:28:00,
2013-05-27 20:33:00,74.4,61.0,30.13,SSE,148,0.0,0.0,63,0.00,,SCT250,0.00,VWS V14.01,2013-05-28 00:33:00,
2013-05-27 20:38:00,74.0,61.1,30.13,SSE,148,0.0,0.0,64,0.00,,SCT250,0.00,VWS V14.01,2013-05-28 00:38:00,
2013-05-27 20:43:00,73.7,61.2,30.13,SSE,148,0.0,0.0,65,0.00,,SCT250,0.00,VWS V14.01,2013-05-28 00:43:00,
2013-05-27 20:49:00,73.4,60.5,30.13,SSE,148,0.0,0.0,64,0.00,,SCT250,0.00,VWS V14.01,2013-05-28 00:49:00,
2013-05-27 20:54:00,73.2,60.3,30.13,SSE,148,0.0,0.0,64,0.00,,SCT250,0.00,VWS V14.01,2013-05-28 00:54:00,
2013-05-27 20:59:00,73.1,60.2,30.13,SSE,148,0.0,0.0,64,0.00,,SCT250,0.00,VWS V14.01,2013-05-28 00:59:00,
2013-05-27 21:04:00,73.1,60.2,30.12,SSE,148,0.0,0.0,64,0.00,,BKN250,0.00,VWS V14.01,2013-05-28 01:04:00,
2013-05-27 21:09:00,73.1,59.8,30.12,SSE,161,0.0,0.0,63,0.00,,BKN250,0.00,VWS V14.01,2013-05-28 01:09:00,
2013-05-27 21:14:00,73.2,59.9,30.12,SSE,161,0.0,0.0,63,0.00,,BKN250,0.00,VWS V14.01,2013-05-28 01:14:00,
2013-05-27 21:19:00,73.3,60.0,30.12,SSE,161,0.0,0.0,63,0.00,,BKN250,0.00,VWS V14.01,2013-05-28 01:19:00,
2013-05-27 21:24:00,73.5,59.7,30.12,SSE,158,0.0,0.0,62,0.00,,BKN250,0.00,VWS V14.01,2013-05-28 01:24:00,
2013-05-27 21:29:00,73.6,59.8,30.12,SSE,159,0.0,0.0,62,0.00,,BKN250,0.00,VWS V14.01,2013-05-28 01:29:00,
2013-05-27 21:34:00,73.6,59.8,30.12,SSE,158,0.0,0.0,62,0.00,,BKN250,0.00,VWS V14.01,2013-05-28 01:34:00,
2013-05-27 21:39:00,73.6,59.8,30.12,SSE,159,0.0,0.0,62,0.00,,BKN250,0.00,VWS V14.01,2013-05-28 01:39:00,
2013-05-27 21:44:00,73.5,59.7,30.12,SSE,159,0.0,0.0,62,0.00,,BKN250,0.00,VWS V14.01,2013-05-28 01:44:00,
2013-05-27 21:49:00,73.4,59.6,30.12,SSE,159,0.0,0.0,62,0.00,,BKN250,0.00,VWS V14.01,2013-05-28 01:49:00,
2013-05-27 21:54:00,73.3,59.5,30.12,SSE,159,0.0,0.0,62,0.00,,BKN250,0.00,VWS V14.01,2013-05-28 01:54:00,
2013-05-27 21:59:00,73.1,59.3,30.12,SSE,159,0.0,0.0,62,0.00,,BKN250,0.00,VWS V14.01,2013-05-28 01:59:00,
2013-05-27 22:04:00,73.0,59.7,30.12,SSE,159,0.0,0.0,63,0.00,,SCT250,0.00,VWS V14.01,2013-05-28 02:04:00,
2013-05-27 22:09:00,72.8,59.5,30.12,SSE,161,0.0,0.0,63,0.00,,SCT250,0.00,VWS V14.01,2013-05-28 02:09:00,
2013-05-27 22:14:00,72.6,59.7,30.12,SSE,161,0.0,0.0,64,0.00,,SCT250,0.00,VWS V14.01,2013-05-28 02:14:00,
2013-05-27 22:19:00,72.4,59.5,30.12,SSE,167,0.0,0.0,64,0.00,,SCT250,0.00,VWS V14.01,2013-05-28 02:19:00,
2013-05-27 22:24:00,72.2,59.8,30.12,SSE,167,0.0,0.0,65,0.00,,SCT250,0.00,VWS V14.01,2013-05-28 02:24:00,
2013-05-27 22:29:00,72.0,59.6,30.13,SE,127,0.0,0.0,65,0.00,,SCT250,0.00,VWS V14.01,2013-05-28 02:29:00,
2013-05-27 22:34:00,71.9,59.9,30.13,SE,140,0.0,0.0,66,0.00,,SCT250,0.00,VWS V14.01,2013-05-28 02:34:00,
2013-05-27 22:39:00,71.7,59.8,30.13,SE,133,0.0,0.0,66,0.00,,SCT250,0.00,VWS V14.01,2013-05-28 02:39:00,
2013-05-27 22:44:00,71.6,60.1,30.14,SE,138,0.0,0.0,67,0.00,,SCT250,0.00,VWS V14.01,2013-05-28 02:44:00,
2013-05-27 22:49:00,71.5,60.0,30.14,SE,139,0.0,0.0,67,0.00,,SCT250,0.00,VWS V14.01,2013-05-28 02:49:00,
2013-05-27 22:54:00,71.3,60.2,30.14,SE,140,0.0,0.0,68,0.00,,SCT250,0.00,VWS V14.01,2013-05-28 02:54:00,
2013-05-27 22:59:00,71.2,60.1,30.14,SE,140,0.0,0.0,68,0.00,,SCT250,0.00,VWS V14.01,2013-05-28 02:59:00,
2013-05-27 23:04:00,70.9,59.8,30.14,SE,140,0.0,0.0,68,0.00,,CLR,0.00,VWS V14.01,2013-05-28 03:04:00,
2013-05-27 23:09:00,70.8,60.1,30.14,South,183,0.0,0.0,69,0.00,,CLR,0.00,VWS V14.01,2013-05-28 03:09:00,
2013-05-27 23:14:00,70.7,60.0,30.15,SSE,167,1.0,0.0,69,0.00,,CLR,0.00,VWS V14.01,2013-05-28 03:14:00,
2013-05-27 23:19:00,70.6,60.8,30.15,SSE,167,0.0,0.0,71,0.00,,CLR,0.00,VWS V14.01,2013-05-28 03:19:00,
2013-05-27 23:24:00,70.3,60.1,30.15,SSE,167,0.0,0.0,70,0.00,,CLR,0.00,VWS V14.01,2013-05-28 03:24:00,
2013-05-27 23:29:00,70.1,60.3,30.15,SSE,167,0.0,0.0,71,0.00,,CLR,0.00,VWS V14.01,2013-05-28 03:29:00,
2013-05-27 23:34:00,69.9,60.5,30.15,SSE,167,0.0,0.0,72,0.00,,CLR,0.00,VWS V14.01,2013-05-28 03:34:00,
2013-05-27 23:39:00,69.6,60.6,30.15,SSE,167,0.0,0.0,73,0.00,,CLR,0.00,VWS V14.01,2013-05-28 03:39:00,
2013-05-27 23:44:00,69.4,60.4,30.15,SSE,167,0.0,0.0,73,0.00,,CLR,0.00,VWS V14.01,2013-05-28 03:44:00,
2013-05-27 23:49:00,69.2,60.6,30.15,SSE,167,0.0,0.0,74,0.00,,CLR,0.00,VWS V14.01,2013-05-28 03:49:00,
2013-05-27 23:54:00,69.0,60.8,30.15,SSE,166,0.0,0.0,75,0.00,,CLR,0.00,VWS V14.01,2013-05-28 03:54:00,
2013-05-27 23:59:00,68.9,61.0,30.15,SSE,166,0.0,0.0,76,0.00,,CLR,0.00,VWS V14.01,2013-05-28 03:59:00,